Talisman — LAOW5 — position and weather

sailwx.info

Track history (hours):
 
Tides and Currents Weather Stations Pressure Air Temp Water Temp Dewpoint Dewpoint Depression Visibility Wind Speed Wind Dir Waves Ship Positions

Talisman

Last reported at 2017-Oct-16 14:00 UTC. Time now 2017-Oct-17 13:11 UTC.
Position S 36°15' E 174°59'.

Type: Ship. MMSI: 257613000.

Date/timePositionNaut miles runAvg speedWind from/ knotsBaromVisibWave heightAir tempDewpointWater temp
2017-Oct-16 14:00S 36°15' E 174°59'5 9.7
2017-Oct-16 13:30S 36°20' E 174°59'5 9.6
2017-Oct-16 13:00S 36°25' E 174°60'5 9.7
2017-Oct-16 12:30S 36°30' E 174°60'5 9.9
2017-Oct-16 12:00S 36°35' E 174°59'5 9.5
2017-Oct-16 11:30S 36°39' E 174°56'510.3
2017-Oct-16 11:00S 36°43' E 174°52'4 9.0
2017-Oct-16 10:30S 36°46' E 174°49'4 8.6
2017-Oct-16 10:00S 36°50' E 174°47'0 0.6
2017-Oct-16 09:28S 36°50' E 174°46'0 0.0
2017-Oct-16 08:46S 36°50' E 174°46'0 0.0
2017-Oct-16 08:28S 36°50' E 174°46'0 0.0
2017-Oct-16 07:58S 36°50' E 174°46'0 0.0
2017-Oct-16 07:28S 36°50' E 174°46'0 0.0
2017-Oct-16 06:46S 36°50' E 174°46'0 0.0
2017-Oct-16 06:28S 36°50' E 174°46'0 0.0
2017-Oct-16 05:58S 36°50' E 174°46'0 0.0
2017-Oct-16 05:28S 36°50' E 174°46'0 0.0
2017-Oct-16 04:58S 36°50' E 174°46'0 0.0
2017-Oct-16 04:28S 36°50' E 174°46'0 0.0
2017-Oct-16 03:58S 36°50' E 174°46'0 0.0
2017-Oct-16 03:28S 36°50' E 174°46'0 0.0
2017-Oct-16 02:58S 36°50' E 174°46'0 0.0
2017-Oct-16 02:28S 36°50' E 174°46'0 0.0
2017-Oct-16 01:58S 36°50' E 174°46'0 0.0
2017-Oct-16 01:28S 36°50' E 174°46'0 0.0
2017-Oct-16 00:58S 36°50' E 174°46'0 0.0
2017-Oct-16 00:28S 36°50' E 174°46'0 0.0
2017-Oct-15 23:58S 36°50' E 174°46'0 0.0
2017-Oct-15 23:28S 36°50' E 174°46'0 0.0
2017-Oct-15 22:58S 36°50' E 174°46'0 0.0
2017-Oct-15 22:28S 36°50' E 174°46'0 0.0
2017-Oct-15 21:58S 36°50' E 174°46'0 0.0
2017-Oct-15 21:28S 36°50' E 174°46'0 0.0
2017-Oct-15 20:52S 36°50' E 174°46'0 0.0
2017-Oct-15 20:28S 36°50' E 174°46'0 0.0
2017-Oct-15 19:58S 36°50' E 174°46'0 0.0
2017-Oct-15 19:28S 36°50' E 174°46'0 0.0
2017-Oct-15 18:58S 36°50' E 174°46'0 0.0
2017-Oct-15 18:28S 36°50' E 174°46'0 0.0
2017-Oct-15 17:58S 36°50' E 174°46'0 0.0
2017-Oct-15 17:28S 36°50' E 174°46'0 0.0
2017-Oct-15 16:58S 36°50' E 174°46'0 0.0
2017-Oct-15 16:22S 36°50' E 174°46'0 0.4
2017-Oct-15 16:00S 36°50' E 174°46'3 5.7
2017-Oct-15 15:30S 36°49' E 174°50'611.9
2017-Oct-15 15:00S 36°44' E 174°51'9 9.2
2017-Oct-15 14:00S 36°37' E 174°59'4 8.9
2017-Oct-15 13:30S 36°34' E 175°03'4 8.2
2017-Oct-15 13:00S 36°31' E 175°06'4 8.9
2017-Oct-15 12:30S 36°28' E 175°10'5 8.9
2017-Oct-15 11:54S 36°24' E 175°15'4 9.1
2017-Oct-15 11:27S 36°22' E 175°19'  
Track history (hours):
 
Tides and Currents Weather Stations Pressure Air Temp Water Temp Dewpoint Dewpoint Depression Visibility Wind Speed Wind Dir Waves Ship Positions

Talisman

Last reported at 2017-Oct-16 14:00 UTC. Time now 2017-Oct-17 13:11 UTC.
Position S 36°15' E 174°59'.

Type: Ship. MMSI: 257613000.

Date/timePositionNaut miles runAvg speedWind from/ knotsBaromVisibWave heightAir tempDewpointWater temp
2017-Oct-16 14:00S 36°15' E 174°59'5 9.7
2017-Oct-16 13:30S 36°20' E 174°59'5 9.6
2017-Oct-16 13:00S 36°25' E 174°60'5 9.7
2017-Oct-16 12:30S 36°30' E 174°60'5 9.9
2017-Oct-16 12:00S 36°35' E 174°59'5 9.5
2017-Oct-16 11:30S 36°39' E 174°56'510.3
2017-Oct-16 11:00S 36°43' E 174°52'4 9.0
2017-Oct-16 10:30S 36°46' E 174°49'4 8.6
2017-Oct-16 10:00S 36°50' E 174°47'0 0.6
2017-Oct-16 09:28S 36°50' E 174°46'0 0.0
2017-Oct-16 08:46S 36°50' E 174°46'0 0.0
2017-Oct-16 08:28S 36°50' E 174°46'0 0.0
2017-Oct-16 07:58S 36°50' E 174°46'0 0.0
2017-Oct-16 07:28S 36°50' E 174°46'0 0.0
2017-Oct-16 06:46S 36°50' E 174°46'0 0.0
2017-Oct-16 06:28S 36°50' E 174°46'0 0.0
2017-Oct-16 05:58S 36°50' E 174°46'0 0.0
2017-Oct-16 05:28S 36°50' E 174°46'0 0.0
2017-Oct-16 04:58S 36°50' E 174°46'0 0.0
2017-Oct-16 04:28S 36°50' E 174°46'0 0.0
2017-Oct-16 03:58S 36°50' E 174°46'0 0.0
2017-Oct-16 03:28S 36°50' E 174°46'0 0.0
2017-Oct-16 02:58S 36°50' E 174°46'0 0.0
2017-Oct-16 02:28S 36°50' E 174°46'0 0.0
2017-Oct-16 01:58S 36°50' E 174°46'0 0.0
2017-Oct-16 01:28S 36°50' E 174°46'0 0.0
2017-Oct-16 00:58S 36°50' E 174°46'0 0.0
2017-Oct-16 00:28S 36°50' E 174°46'0 0.0
2017-Oct-15 23:58S 36°50' E 174°46'0 0.0
2017-Oct-15 23:28S 36°50' E 174°46'0 0.0
2017-Oct-15 22:58S 36°50' E 174°46'0 0.0
2017-Oct-15 22:28S 36°50' E 174°46'0 0.0
2017-Oct-15 21:58S 36°50' E 174°46'0 0.0
2017-Oct-15 21:28S 36°50' E 174°46'0 0.0
2017-Oct-15 20:52S 36°50' E 174°46'0 0.0
2017-Oct-15 20:28S 36°50' E 174°46'0 0.0
2017-Oct-15 19:58S 36°50' E 174°46'0 0.0
2017-Oct-15 19:28S 36°50' E 174°46'0 0.0
2017-Oct-15 18:58S 36°50' E 174°46'0 0.0
2017-Oct-15 18:28S 36°50' E 174°46'0 0.0
2017-Oct-15 17:58S 36°50' E 174°46'0 0.0
2017-Oct-15 17:28S 36°50' E 174°46'0 0.0
2017-Oct-15 16:58S 36°50' E 174°46'0 0.0
2017-Oct-15 16:22S 36°50' E 174°46'0 0.4
2017-Oct-15 16:00S 36°50' E 174°46'3 5.7
2017-Oct-15 15:30S 36°49' E 174°50'611.9
2017-Oct-15 15:00S 36°44' E 174°51'9 9.2
2017-Oct-15 14:00S 36°37' E 174°59'4 8.9
2017-Oct-15 13:30S 36°34' E 175°03'4 8.2
2017-Oct-15 13:00S 36°31' E 175°06'4 8.9
2017-Oct-15 12:30S 36°28' E 175°10'5 8.9
2017-Oct-15 11:54S 36°24' E 175°15'4 9.1
2017-Oct-15 11:27S 36°22' E 175°19'  

Dump ship's entire track history